createdAt,value
2019-02-22T00:00:34.977Z,1018.50
2019-02-22T00:01:34.958Z,1018.62
2019-02-22T00:02:34.941Z,1018.47
2019-02-22T00:03:34.934Z,1018.61
2019-02-22T00:04:34.919Z,1018.65
2019-02-22T00:05:34.917Z,1018.54
2019-02-22T00:06:34.909Z,1018.61
2019-02-22T00:07:34.886Z,1018.56
2019-02-22T00:08:34.873Z,1018.64
2019-02-22T00:09:34.869Z,1018.66
2019-02-22T00:10:34.857Z,1018.69
2019-02-22T00:11:34.865Z,1018.65
2019-02-22T00:12:34.881Z,1018.68
2019-02-22T00:13:34.817Z,1018.72
2019-02-22T00:14:34.803Z,1018.69
2019-02-22T00:15:36.388Z,1018.79
2019-02-22T00:16:34.966Z,1018.79
2019-02-22T00:17:34.783Z,1018.80
2019-02-22T00:18:34.767Z,1018.83
2019-02-22T00:19:34.755Z,1018.86
2019-02-22T00:20:34.771Z,1018.88
2019-02-22T00:21:34.730Z,1018.85
2019-02-22T00:22:34.729Z,1018.84
2019-02-22T00:23:34.738Z,1018.90
2019-02-22T00:24:34.697Z,1018.87
2019-02-22T00:25:34.774Z,1018.97
2019-02-22T00:26:34.716Z,1018.94
2019-02-22T00:27:34.658Z,1018.99
2019-02-22T00:28:34.658Z,1018.96
2019-02-22T00:29:34.656Z,1019.01
2019-02-22T00:30:34.758Z,1018.99
2019-02-22T00:31:34.716Z,1019.02
2019-02-22T00:32:34.640Z,1018.99
2019-02-22T00:33:34.606Z,1019.04
2019-02-22T00:34:34.741Z,1019.05
2019-02-22T00:35:34.778Z,1019.00
2019-02-22T00:36:34.641Z,1019.08
2019-02-22T00:37:34.605Z,1019.10
2019-02-22T00:38:34.543Z,1019.11
2019-02-22T00:39:34.554Z,1019.10
2019-02-22T00:40:34.535Z,1019.11
2019-02-22T00:41:34.681Z,1019.05
2019-02-22T00:42:34.494Z,1019.17
2019-02-22T00:43:34.494Z,1019.16
2019-02-22T00:44:34.490Z,1019.14
2019-02-22T00:45:34.467Z,1019.16
2019-02-22T00:46:34.452Z,1019.23
2019-02-22T00:47:34.443Z,1019.30
2019-02-22T00:48:34.425Z,1019.17
2019-02-22T00:49:34.446Z,1019.23
2019-02-22T00:50:34.407Z,1019.27
2019-02-22T00:51:34.388Z,1019.29
2019-02-22T00:52:34.389Z,1019.26
2019-02-22T00:53:34.463Z,1019.21
2019-02-22T00:54:34.384Z,1019.35
2019-02-22T00:55:34.362Z,1019.33
2019-02-22T00:56:34.366Z,1019.33
2019-02-22T00:57:34.325Z,1019.30
2019-02-22T00:58:34.312Z,1019.37
2019-02-22T00:59:34.987Z,1019.36
2019-02-22T01:00:34.539Z,1019.34
2019-02-22T01:01:34.290Z,1019.39
2019-02-22T01:02:34.290Z,1019.44
2019-02-22T01:03:34.267Z,1019.40
2019-02-22T01:04:34.259Z,1019.44
2019-02-22T01:05:34.244Z,1019.42
2019-02-22T01:06:34.229Z,1019.42
2019-02-22T01:07:34.225Z,1019.47
2019-02-22T01:08:34.245Z,1019.50
2019-02-22T01:09:34.203Z,1019.50
2019-02-22T01:10:34.252Z,1019.58
2019-02-22T01:11:34.196Z,1019.69
2019-02-22T01:12:34.201Z,1019.55
2019-02-22T01:13:34.162Z,1019.60
2019-02-22T01:14:34.302Z,1019.60
2019-02-22T01:15:34.133Z,1019.72
2019-02-22T01:16:34.124Z,1019.73
2019-02-22T01:17:34.112Z,1019.69
2019-02-22T01:18:34.100Z,1019.64
2019-02-22T01:19:34.102Z,1019.78
2019-02-22T01:20:34.086Z,1019.73
2019-02-22T01:21:34.153Z,1019.70
2019-02-22T01:22:34.052Z,1019.73
2019-02-22T01:23:34.049Z,1019.74
2019-02-22T01:24:34.036Z,1019.76
2019-02-22T01:25:34.113Z,1019.79
2019-02-22T01:26:34.021Z,1019.88
2019-02-22T01:27:34.002Z,1019.88
2019-02-22T01:28:33.999Z,1019.86
2019-02-22T01:29:34.068Z,1019.89
2019-02-22T01:30:33.983Z,1019.94
2019-02-22T01:31:33.996Z,1019.96
2019-02-22T01:32:33.943Z,1020.03
2019-02-22T01:33:33.935Z,1020.08
2019-02-22T01:34:33.922Z,1020.05
2019-02-22T01:35:33.919Z,1020.11
2019-02-22T01:36:33.957Z,1020.08
2019-02-22T01:37:33.925Z,1020.09
2019-02-22T01:38:33.886Z,1020.12
2019-02-22T01:39:33.863Z,1020.05
2019-02-22T01:40:43.226Z,1020.11
2019-02-22T01:41:34.860Z,1020.18
2019-02-22T01:42:33.841Z,1020.09
2019-02-22T01:43:33.899Z,1020.19
2019-02-22T01:44:33.818Z,1020.18
2019-02-22T01:45:33.844Z,1020.22
2019-02-22T01:46:33.785Z,1020.19
2019-02-22T01:47:33.793Z,1020.19
2019-02-22T01:48:33.789Z,1020.25
2019-02-22T01:49:33.779Z,1020.21
2019-02-22T01:50:33.750Z,1020.20
2019-02-22T01:51:33.731Z,1020.28
2019-02-22T01:52:33.727Z,1020.25
2019-02-22T01:53:33.765Z,1020.29
2019-02-22T01:54:33.726Z,1020.34
2019-02-22T01:55:33.701Z,1020.35
2019-02-22T01:56:33.682Z,1020.36
2019-02-22T01:57:33.664Z,1020.38
2019-02-22T01:58:33.665Z,1020.38
2019-02-22T01:59:33.698Z,1020.45
2019-02-22T02:00:33.630Z,1020.38
2019-02-22T02:01:33.631Z,1020.43
2019-02-22T02:02:33.624Z,1020.47
2019-02-22T02:03:33.602Z,1020.46
2019-02-22T02:04:33.612Z,1020.39
2019-02-22T02:05:33.594Z,1020.46
2019-02-22T02:06:33.572Z,1020.47
2019-02-22T02:07:33.556Z,1020.52
2019-02-22T02:08:33.548Z,1020.52
2019-02-22T02:09:33.536Z,1020.55
2019-02-22T02:10:33.563Z,1020.50
2019-02-22T02:11:33.514Z,1020.46
2019-02-22T02:12:33.501Z,1020.53
2019-02-22T02:13:33.498Z,1020.49
2019-02-22T02:14:33.484Z,1020.54
2019-02-22T02:15:33.512Z,1020.49
2019-02-22T02:16:33.469Z,1020.54
2019-02-22T02:17:33.454Z,1020.55
2019-02-22T02:18:33.433Z,1020.60
2019-02-22T02:19:33.431Z,1020.61
2019-02-22T02:20:33.415Z,1020.65
2019-02-22T02:21:33.411Z,1020.61
2019-02-22T02:22:33.395Z,1020.66
2019-02-22T02:23:33.377Z,1020.69
2019-02-22T02:24:33.373Z,1020.73
2019-02-22T02:25:33.358Z,1020.76
2019-02-22T02:26:33.352Z,1020.78
2019-02-22T02:27:33.361Z,1020.77
2019-02-22T02:28:33.333Z,1020.78
2019-02-22T02:29:33.313Z,1020.77
2019-02-22T02:30:33.306Z,1020.80
2019-02-22T02:31:33.289Z,1020.84
2019-02-22T02:32:33.286Z,1020.83
2019-02-22T02:33:33.291Z,1020.92
2019-02-22T02:34:33.291Z,1020.86
2019-02-22T02:35:33.255Z,1020.90
2019-02-22T02:36:33.251Z,1020.87
2019-02-22T02:37:33.229Z,1021.00
2019-02-22T02:38:33.231Z,1020.97
2019-02-22T02:39:33.209Z,1020.97
2019-02-22T02:40:33.214Z,1020.98
2019-02-22T02:41:33.209Z,1021.01
2019-02-22T02:42:33.180Z,1021.02
2019-02-22T02:43:33.169Z,1021.10
2019-02-22T02:44:33.153Z,1021.01
2019-02-22T02:45:33.145Z,1021.09
2019-02-22T02:46:33.143Z,1021.06
2019-02-22T02:47:33.118Z,1021.12
2019-02-22T02:48:33.195Z,1021.12
2019-02-22T02:49:33.105Z,1021.15
2019-02-22T02:50:33.096Z,1021.12
2019-02-22T02:51:33.117Z,1021.15
2019-02-22T02:52:33.061Z,1021.20
2019-02-22T02:53:33.052Z,1021.15
2019-02-22T02:54:33.041Z,1021.19
2019-02-22T02:55:33.038Z,1021.23
2019-02-22T02:56:33.016Z,1021.26
2019-02-22T02:57:33.010Z,1021.22
2019-02-22T02:58:33.010Z,1021.23
2019-02-22T02:59:33.009Z,1021.30
2019-02-22T03:00:32.978Z,1021.32
2019-02-22T03:01:32.975Z,1021.29
2019-02-22T03:02:32.973Z,1021.31
2019-02-22T03:03:32.936Z,1021.32
2019-02-22T03:04:32.957Z,1021.35
2019-02-22T03:05:32.930Z,1021.38
2019-02-22T03:06:32.979Z,1021.36
2019-02-22T03:07:32.892Z,1021.35
2019-02-22T03:08:32.916Z,1021.41
2019-02-22T03:09:32.877Z,1021.43
2019-02-22T03:10:32.890Z,1021.41
2019-02-22T03:11:32.850Z,1021.45
2019-02-22T03:12:32.857Z,1021.50
2019-02-22T03:13:32.833Z,1021.46
2019-02-22T03:14:32.829Z,1021.49
2019-02-22T03:15:32.827Z,1021.51
2019-02-22T03:16:32.821Z,1021.51
2019-02-22T03:17:32.784Z,1021.54
2019-02-22T03:18:32.793Z,1021.52
2019-02-22T03:19:32.765Z,1021.69
2019-02-22T03:20:32.753Z,1021.57
2019-02-22T03:21:32.747Z,1021.51
2019-02-22T03:22:32.853Z,1021.53
2019-02-22T03:23:32.732Z,1021.56
2019-02-22T03:24:32.726Z,1021.56
2019-02-22T03:25:32.832Z,1021.57
2019-02-22T03:26:32.716Z,1021.59
2019-02-22T03:27:32.694Z,1021.59
2019-02-22T03:28:32.707Z,1021.61
2019-02-22T03:29:32.722Z,1021.67
2019-02-22T03:30:32.655Z,1021.69
2019-02-22T03:31:32.644Z,1021.72
2019-02-22T03:32:32.637Z,1021.78
2019-02-22T03:33:32.621Z,1021.81
2019-02-22T03:34:32.603Z,1021.81
2019-02-22T03:35:32.602Z,1021.71
2019-02-22T03:36:32.574Z,1021.86
2019-02-22T03:37:32.567Z,1021.87
2019-02-22T03:38:32.566Z,1021.91
2019-02-22T03:39:32.561Z,1021.84
2019-02-22T03:40:32.546Z,1021.90
2019-02-22T03:41:33.512Z,1021.88
2019-02-22T03:42:32.519Z,1021.86
2019-02-22T03:43:32.501Z,1021.88
2019-02-22T03:44:32.502Z,1021.96
2019-02-22T03:45:32.490Z,1021.99
2019-02-22T03:46:32.472Z,1022.08
2019-02-22T03:47:35.167Z,1022.06
2019-02-22T03:48:32.452Z,1022.16
2019-02-22T03:49:32.458Z,1022.21
2019-02-22T03:50:32.441Z,1022.18
2019-02-22T03:51:32.445Z,1022.23
2019-02-22T03:52:32.410Z,1022.26
2019-02-22T03:53:32.403Z,1022.30
2019-02-22T03:54:32.399Z,1022.35
2019-02-22T03:55:32.383Z,1022.33
2019-02-22T03:56:32.395Z,1022.28
2019-02-22T03:57:32.356Z,1022.31
2019-02-22T03:58:32.361Z,1022.45
2019-02-22T03:59:32.324Z,1022.41
2019-02-22T04:00:32.318Z,1022.45
2019-02-22T04:01:32.369Z,1022.52
2019-02-22T04:02:32.314Z,1022.48
2019-02-22T04:03:32.305Z,1022.53
2019-02-22T04:04:32.269Z,1022.57
2019-02-22T04:05:32.283Z,1022.53
2019-02-22T04:06:32.253Z,1022.66
2019-02-22T04:07:32.254Z,1022.65
2019-02-22T04:08:32.223Z,1022.61
2019-02-22T04:09:32.223Z,1022.64
2019-02-22T04:10:32.213Z,1022.68
2019-02-22T04:11:44.632Z,1022.66
2019-02-22T04:12:33.302Z,1022.74
2019-02-22T04:13:32.187Z,1022.65
2019-02-22T04:14:32.166Z,1022.69
2019-02-22T04:15:32.164Z,1022.75
2019-02-22T04:16:32.138Z,1022.81
2019-02-22T04:17:32.128Z,1022.82
2019-02-22T04:18:32.159Z,1022.84
2019-02-22T04:19:32.130Z,1022.88
2019-02-22T04:20:32.101Z,1022.87
2019-02-22T04:21:32.076Z,1022.91
2019-02-22T04:22:32.071Z,1022.95
2019-02-22T04:23:32.063Z,1022.97
2019-02-22T04:24:32.050Z,1023.04
2019-02-22T04:25:32.126Z,1022.99
2019-02-22T04:26:32.057Z,1023.18
2019-02-22T04:27:32.012Z,1023.18
2019-02-22T04:28:31.998Z,1023.12
2019-02-22T04:29:32.012Z,1023.19
2019-02-22T04:30:31.977Z,1023.26
2019-02-22T04:31:31.991Z,1023.35
2019-02-22T04:32:31.955Z,1023.28
2019-02-22T04:33:31.946Z,1023.33
2019-02-22T04:34:31.940Z,1023.34
2019-02-22T04:35:31.935Z,1023.38
2019-02-22T04:36:31.934Z,1023.45
2019-02-22T04:37:31.918Z,1023.46
2019-02-22T04:38:31.891Z,1023.51
2019-02-22T04:39:31.876Z,1023.57
2019-02-22T04:40:31.876Z,1023.60
2019-02-22T04:41:31.860Z,1023.66
2019-02-22T04:42:31.879Z,1023.66
2019-02-22T04:43:31.833Z,1023.66
2019-02-22T04:44:31.820Z,1023.72
2019-02-22T04:45:31.820Z,1023.92
2019-02-22T04:46:31.819Z,1023.89
2019-02-22T04:47:31.789Z,1023.92
2019-02-22T04:48:31.803Z,1023.96
2019-02-22T04:49:31.765Z,1024.03
2019-02-22T04:50:31.756Z,1024.02
2019-02-22T04:51:31.745Z,1024.05
2019-02-22T04:52:31.741Z,1024.04
2019-02-22T04:53:31.727Z,1024.08
2019-02-22T04:54:31.723Z,1024.06
2019-02-22T04:55:31.703Z,1024.11
2019-02-22T04:56:31.699Z,1024.13
2019-02-22T04:57:31.686Z,1024.31
2019-02-22T04:58:31.675Z,1024.25
2019-02-22T04:59:31.681Z,1024.27
2019-02-22T05:00:31.658Z,1024.28
2019-02-22T05:01:31.641Z,1024.36
2019-02-22T05:02:31.620Z,1024.42
2019-02-22T05:03:31.660Z,1024.34
2019-02-22T05:04:31.604Z,1024.47
2019-02-22T05:05:31.606Z,1024.47
2019-02-22T05:06:31.573Z,1024.50
2019-02-22T05:07:31.628Z,1024.46
2019-02-22T05:08:31.558Z,1024.49
2019-02-22T05:09:31.560Z,1024.54
2019-02-22T05:10:31.546Z,1024.51
2019-02-22T05:11:31.535Z,1024.53
2019-02-22T05:12:31.510Z,1024.64
2019-02-22T05:13:31.502Z,1024.58
2019-02-22T05:14:31.499Z,1024.54
2019-02-22T05:15:31.486Z,1024.65
2019-02-22T05:16:31.475Z,1024.65
2019-02-22T05:17:31.472Z,1024.74
2019-02-22T05:18:31.457Z,1024.77
2019-02-22T05:19:31.449Z,1024.81
2019-02-22T05:20:31.427Z,1024.85
2019-02-22T05:21:31.450Z,1024.97
2019-02-22T05:22:31.434Z,1024.97
2019-02-22T05:23:31.402Z,1024.94
2019-02-22T05:24:31.384Z,1024.99
2019-02-22T05:25:31.365Z,1024.99
2019-02-22T05:26:31.372Z,1025.05
2019-02-22T05:27:31.382Z,1025.11
2019-02-22T05:28:31.358Z,1025.10
2019-02-22T05:29:31.319Z,1025.13
2019-02-22T05:30:31.333Z,1025.05
2019-02-22T05:31:31.307Z,1025.16
2019-02-22T05:32:31.311Z,1025.22
2019-02-22T05:33:31.287Z,1025.29
2019-02-22T05:34:31.273Z,1025.22
2019-02-22T05:35:31.326Z,1025.31
2019-02-22T05:36:31.253Z,1025.24
2019-02-22T05:37:31.239Z,1025.31
2019-02-22T05:38:31.232Z,1025.34
2019-02-22T05:39:31.225Z,1025.27
2019-02-22T05:40:31.212Z,1025.31
2019-02-22T05:41:31.188Z,1025.32
2019-02-22T05:42:31.179Z,1025.39
2019-02-22T05:43:31.169Z,1025.41
2019-02-22T05:44:31.171Z,1025.40
2019-02-22T05:45:31.144Z,1025.47
2019-02-22T05:46:31.136Z,1025.51
2019-02-22T05:47:31.121Z,1025.56
2019-02-22T05:48:31.117Z,1025.58
2019-02-22T05:49:31.112Z,1025.61
2019-02-22T05:50:31.101Z,1025.61
2019-02-22T05:51:31.088Z,1025.71
2019-02-22T05:52:31.077Z,1025.68
2019-02-22T05:53:31.059Z,1025.75
2019-02-22T05:54:31.063Z,1025.79
2019-02-22T05:55:31.040Z,1025.85
2019-02-22T05:56:31.038Z,1025.84
2019-02-22T05:57:31.015Z,1025.92
2019-02-22T05:58:31.004Z,1025.95
2019-02-22T05:59:30.989Z,1025.97
2019-02-22T06:00:30.972Z,1026.05
2019-02-22T06:01:30.979Z,1026.07
2019-02-22T06:02:33.754Z,1026.04
2019-02-22T06:03:30.942Z,1026.16
2019-02-22T06:04:30.938Z,1026.13
2019-02-22T06:05:30.923Z,1026.15
2019-02-22T06:06:30.917Z,1026.18
2019-02-22T06:07:30.907Z,1026.24
2019-02-22T06:08:30.942Z,1026.21
2019-02-22T06:09:30.881Z,1026.33
2019-02-22T06:10:30.866Z,1026.31
2019-02-22T06:11:30.863Z,1026.42
2019-02-22T06:12:34.596Z,1026.43
2019-02-22T06:13:30.871Z,1026.49
2019-02-22T06:14:30.833Z,1026.54
2019-02-22T06:15:31.639Z,1026.60
2019-02-22T06:16:30.797Z,1026.58
2019-02-22T06:17:30.791Z,1026.57
2019-02-22T06:18:30.797Z,1026.64
2019-02-22T06:19:30.761Z,1026.72
2019-02-22T06:20:30.753Z,1026.71
2019-02-22T06:21:30.742Z,1026.82
2019-02-22T06:22:30.758Z,1026.83
2019-02-22T06:23:30.731Z,1026.85
2019-02-22T06:24:30.721Z,1026.86
2019-02-22T06:25:30.716Z,1026.95
2019-02-22T06:26:30.701Z,1026.97
2019-02-22T06:27:30.684Z,1026.93
2019-02-22T06:28:30.685Z,1026.95
2019-02-22T06:29:30.661Z,1026.96
2019-02-22T06:30:30.649Z,1027.05
2019-02-22T06:31:30.637Z,1027.02
2019-02-22T06:32:30.703Z,1027.08
2019-02-22T06:33:30.605Z,1027.13
2019-02-22T06:34:30.601Z,1027.10
2019-02-22T06:35:30.604Z,1027.17
2019-02-22T06:36:30.598Z,1027.16
2019-02-22T06:37:30.568Z,1027.26
2019-02-22T06:38:30.621Z,1027.26
2019-02-22T06:39:30.593Z,1027.29
2019-02-22T06:40:30.548Z,1027.34
2019-02-22T06:41:30.562Z,1027.31
2019-02-22T06:42:30.515Z,1027.38
2019-02-22T06:43:30.492Z,1027.41
2019-02-22T06:44:30.504Z,1027.41
2019-02-22T06:45:30.499Z,1027.42
2019-02-22T06:46:30.466Z,1027.52
2019-02-22T06:47:30.453Z,1027.55
2019-02-22T06:48:30.444Z,1027.57
2019-02-22T06:49:30.465Z,1027.61
2019-02-22T06:50:33.878Z,1027.63
2019-02-22T06:51:30.410Z,1027.69
2019-02-22T06:52:30.412Z,1027.65
2019-02-22T06:53:30.382Z,1027.69
2019-02-22T06:54:30.379Z,1027.75
2019-02-22T06:55:30.374Z,1027.72
2019-02-22T06:56:30.356Z,1027.73
2019-02-22T06:57:30.351Z,1027.82
2019-02-22T06:58:30.410Z,1027.80
2019-02-22T06:59:30.339Z,1027.81
2019-02-22T07:00:30.313Z,1027.86
2019-02-22T07:01:30.312Z,1027.95
2019-02-22T07:02:30.302Z,1028.00
2019-02-22T07:03:30.286Z,1027.98
2019-02-22T07:04:30.272Z,1028.10
2019-02-22T07:05:30.253Z,1028.14
2019-02-22T07:06:30.243Z,1028.16
2019-02-22T07:07:30.237Z,1028.24
2019-02-22T07:08:30.231Z,1028.24
2019-02-22T07:09:30.229Z,1028.32
2019-02-22T07:10:30.200Z,1028.23
2019-02-22T07:11:30.185Z,1028.33
2019-02-22T07:12:30.181Z,1028.41
2019-02-22T07:13:30.191Z,1028.35
2019-02-22T07:14:30.180Z,1028.36
2019-02-22T07:15:30.162Z,1028.38
2019-02-22T07:16:30.171Z,1028.37
2019-02-22T07:17:30.124Z,1028.40
2019-02-22T07:18:30.121Z,1028.42
2019-02-22T07:19:30.107Z,1028.43
2019-02-22T07:20:30.092Z,1028.52
2019-02-22T07:21:43.711Z,1028.56
2019-02-22T07:22:31.112Z,1028.59
2019-02-22T07:23:30.065Z,1028.61
2019-02-22T07:24:30.038Z,1028.68
2019-02-22T07:25:30.063Z,1028.69
2019-02-22T07:26:30.040Z,1028.69
2019-02-22T07:27:30.013Z,1028.82
2019-02-22T07:28:30.000Z,1028.76
2019-02-22T07:29:29.996Z,1028.85
2019-02-22T07:30:29.994Z,1028.90
2019-02-22T07:31:29.982Z,1028.84
2019-02-22T07:32:29.976Z,1028.94
2019-02-22T07:33:29.943Z,1028.98
2019-02-22T07:34:29.935Z,1028.95
2019-02-22T07:35:29.923Z,1028.99
2019-02-22T07:36:29.924Z,1029.04
2019-02-22T07:37:29.910Z,1029.02
2019-02-22T07:38:29.886Z,1029.07
2019-02-22T07:39:29.882Z,1029.15
2019-02-22T07:40:29.867Z,1029.15
2019-02-22T07:41:29.871Z,1029.30
2019-02-22T07:42:29.862Z,1029.16
2019-02-22T07:43:29.856Z,1029.17
2019-02-22T07:44:29.824Z,1029.26
2019-02-22T07:45:29.814Z,1029.23
2019-02-22T07:46:29.808Z,1029.24
2019-02-22T07:47:29.795Z,1029.26
2019-02-22T07:48:29.793Z,1029.40
2019-02-22T07:49:29.792Z,1029.38
2019-02-22T07:50:29.799Z,1029.43
2019-02-22T07:51:29.742Z,1029.57
2019-02-22T07:52:29.747Z,1029.51
2019-02-22T07:53:29.731Z,1029.54
2019-02-22T07:54:29.734Z,1029.66
2019-02-22T07:55:29.758Z,1029.67
2019-02-22T07:56:29.695Z,1029.71
2019-02-22T07:57:29.690Z,1029.77
2019-02-22T07:58:29.680Z,1029.82
2019-02-22T07:59:29.663Z,1029.81
2019-02-22T08:00:29.658Z,1029.84
2019-02-22T08:01:29.651Z,1029.85
2019-02-22T08:02:29.637Z,1029.86
2019-02-22T08:03:29.613Z,1029.99
2019-02-22T08:04:29.608Z,1029.99
2019-02-22T08:05:29.653Z,1029.99
2019-02-22T08:06:29.592Z,1030.04
2019-02-22T08:07:29.578Z,1030.04
2019-02-22T08:08:29.568Z,1030.04
2019-02-22T08:09:29.551Z,1030.04
2019-02-22T08:10:29.540Z,1030.03
2019-02-22T08:11:29.556Z,1030.03
2019-02-22T08:12:29.531Z,1030.15
2019-02-22T08:13:29.506Z,1030.07
2019-02-22T08:14:29.497Z,1030.13
2019-02-22T08:15:29.490Z,1030.18
2019-02-22T08:16:29.488Z,1030.19
2019-02-22T08:17:29.466Z,1030.15
2019-02-22T08:18:29.463Z,1030.17
2019-02-22T08:19:29.437Z,1030.24
2019-02-22T08:20:29.433Z,1030.26
2019-02-22T08:21:29.420Z,1030.21
2019-02-22T08:22:29.411Z,1030.24
2019-02-22T08:23:29.404Z,1030.29
2019-02-22T08:24:29.413Z,1030.37
2019-02-22T08:25:29.383Z,1030.31
2019-02-22T08:26:29.370Z,1030.31
2019-02-22T08:27:29.370Z,1030.35
2019-02-22T08:28:29.346Z,1030.33
2019-02-22T08:29:29.350Z,1030.42
2019-02-22T08:30:29.321Z,1030.48
2019-02-22T08:31:29.316Z,1030.44
2019-02-22T08:32:29.295Z,1030.48
2019-02-22T08:33:29.292Z,1030.53
2019-02-22T08:34:29.302Z,1030.53
2019-02-22T08:35:29.295Z,1030.54
2019-02-22T08:36:29.257Z,1030.62
2019-02-22T08:37:29.242Z,1030.61
2019-02-22T08:38:29.246Z,1030.70
2019-02-22T08:39:29.239Z,1030.60
2019-02-22T08:40:29.224Z,1030.69
2019-02-22T08:41:29.207Z,1030.67
2019-02-22T08:42:29.190Z,1030.77
2019-02-22T08:43:31.759Z,1030.74
2019-02-22T08:44:29.165Z,1030.84
2019-02-22T08:45:29.174Z,1030.83
2019-02-22T08:46:29.179Z,1030.88
2019-02-22T08:47:29.171Z,1030.91
2019-02-22T08:48:29.126Z,1030.89
2019-02-22T08:49:29.118Z,1030.95
2019-02-22T08:50:29.234Z,1031.04
2019-02-22T08:51:29.112Z,1030.98
2019-02-22T08:52:29.126Z,1031.04
2019-02-22T08:53:29.136Z,1031.03
2019-02-22T08:54:29.085Z,1031.06
2019-02-22T08:55:29.050Z,1031.04
2019-02-22T08:56:29.177Z,1031.02
2019-02-22T08:57:29.054Z,1031.08
2019-02-22T08:58:29.020Z,1031.17
2019-02-22T08:59:29.011Z,1031.12
2019-02-22T09:00:28.997Z,1031.10
2019-02-22T09:01:28.986Z,1031.05
2019-02-22T09:02:28.990Z,1031.11
2019-02-22T09:03:28.980Z,1031.28
2019-02-22T09:04:29.002Z,1031.19
2019-02-22T09:05:28.967Z,1031.23
2019-02-22T09:06:29.033Z,1031.24
2019-02-22T09:07:28.916Z,1031.26
2019-02-22T09:08:28.912Z,1031.31
2019-02-22T09:09:28.902Z,1031.34
2019-02-22T09:10:28.894Z,1031.31
2019-02-22T09:11:28.875Z,1031.36
2019-02-22T09:12:28.865Z,1031.33
2019-02-22T09:13:28.855Z,1031.35
2019-02-22T09:14:28.847Z,1031.40
2019-02-22T09:15:28.841Z,1031.49
2019-02-22T09:16:28.831Z,1031.46
2019-02-22T09:17:28.803Z,1031.52
2019-02-22T09:18:28.803Z,1031.46
2019-02-22T09:19:28.793Z,1031.55
2019-02-22T09:20:28.775Z,1031.64
2019-02-22T09:21:28.777Z,1031.58
2019-02-22T09:22:28.828Z,1031.57
2019-02-22T09:23:28.750Z,1031.58
2019-02-22T09:24:28.805Z,1031.62
2019-02-22T09:25:28.726Z,1031.65
2019-02-22T09:26:28.707Z,1031.63
2019-02-22T09:27:28.704Z,1031.72
2019-02-22T09:28:28.695Z,1031.71
2019-02-22T09:29:28.685Z,1031.70
2019-02-22T09:30:28.680Z,1031.70
2019-02-22T09:31:28.674Z,1031.64
2019-02-22T09:32:28.675Z,1031.66
2019-02-22T09:33:28.650Z,1031.63
2019-02-22T09:34:28.640Z,1031.71
2019-02-22T09:35:28.619Z,1031.84
2019-02-22T09:36:28.613Z,1031.75
2019-02-22T09:37:28.647Z,1031.79
2019-02-22T09:38:28.584Z,1031.82
2019-02-22T09:39:28.573Z,1031.80
2019-02-22T09:40:28.599Z,1031.84
2019-02-22T09:41:28.548Z,1031.81
2019-02-22T09:42:28.549Z,1031.82
2019-02-22T09:43:28.529Z,1031.89
2019-02-22T09:44:28.524Z,1031.85
2019-02-22T09:45:28.528Z,1031.83
2019-02-22T09:46:28.504Z,1031.90
2019-02-22T09:47:28.482Z,1031.88
2019-02-22T09:48:28.490Z,1031.99
2019-02-22T09:49:28.543Z,1031.92
2019-02-22T09:50:28.460Z,1031.98
2019-02-22T09:51:28.495Z,1032.06
2019-02-22T09:52:28.488Z,1032.00
2019-02-22T09:53:28.430Z,1032.04
2019-02-22T09:54:28.414Z,1031.97
2019-02-22T09:55:28.398Z,1032.12
2019-02-22T09:56:28.389Z,1032.09
2019-02-22T09:57:28.377Z,1032.12
2019-02-22T09:58:28.371Z,1032.17
2019-02-22T09:59:28.355Z,1032.21
2019-02-22T10:00:28.342Z,1032.14
2019-02-22T10:01:28.347Z,1032.24
2019-02-22T10:02:28.322Z,1032.21
2019-02-22T10:03:28.312Z,1032.28
2019-02-22T10:04:28.317Z,1032.22
2019-02-22T10:05:28.290Z,1032.27
2019-02-22T10:06:28.298Z,1032.26
2019-02-22T10:07:28.425Z,1032.24
2019-02-22T10:08:28.270Z,1032.21
2019-02-22T10:09:28.251Z,1032.22
2019-02-22T10:10:28.244Z,1032.20
2019-02-22T10:11:28.234Z,1032.23
2019-02-22T10:12:28.308Z,1032.22
2019-02-22T10:13:28.249Z,1032.23
2019-02-22T10:14:28.605Z,1032.19
2019-02-22T10:15:28.235Z,1032.34
2019-02-22T10:16:28.180Z,1032.33
2019-02-22T10:17:28.150Z,1032.33
2019-02-22T10:18:28.152Z,1032.37
2019-02-22T10:19:28.130Z,1032.37
2019-02-22T10:20:28.136Z,1032.38
2019-02-22T10:21:28.122Z,1032.34
2019-02-22T10:22:28.137Z,1032.32
2019-02-22T10:23:28.093Z,1032.33
2019-02-22T10:24:28.082Z,1032.38
2019-02-22T10:25:28.068Z,1032.42
2019-02-22T10:26:28.070Z,1032.37
2019-02-22T10:27:28.049Z,1032.37
2019-02-22T10:28:28.043Z,1032.41
2019-02-22T10:29:28.076Z,1032.33
2019-02-22T10:30:28.027Z,1032.41
2019-02-22T10:31:28.002Z,1032.38
2019-02-22T10:32:27.988Z,1032.41
2019-02-22T10:33:36.177Z,1032.41
2019-02-22T10:34:29.008Z,1032.35
2019-02-22T10:35:27.977Z,1032.37
2019-02-22T10:36:27.990Z,1032.29
2019-02-22T10:37:27.929Z,1032.42
2019-02-22T10:38:27.925Z,1032.45
2019-02-22T10:39:28.001Z,1032.40
2019-02-22T10:40:27.900Z,1032.45
2019-02-22T10:41:27.898Z,1032.39
2019-02-22T10:42:27.876Z,1032.41
2019-02-22T10:43:27.871Z,1032.40
2019-02-22T10:44:27.859Z,1032.47
2019-02-22T10:45:27.854Z,1032.50
2019-02-22T10:46:27.835Z,1032.45
2019-02-22T10:47:27.822Z,1032.48
2019-02-22T10:48:27.813Z,1032.52
2019-02-22T10:49:27.823Z,1032.52
2019-02-22T10:50:27.801Z,1032.53
2019-02-22T10:51:27.779Z,1032.52
2019-02-22T10:52:27.779Z,1032.57
2019-02-22T10:53:27.787Z,1032.62
2019-02-22T10:54:27.751Z,1032.54
2019-02-22T10:55:27.746Z,1032.62
2019-02-22T10:56:28.442Z,1032.56
2019-02-22T10:57:27.718Z,1032.60
2019-02-22T10:58:27.707Z,1032.54
2019-02-22T10:59:27.699Z,1032.53
2019-02-22T11:00:27.680Z,1032.51
2019-02-22T11:01:27.694Z,1032.60
2019-02-22T11:02:27.675Z,1032.64
2019-02-22T11:03:27.659Z,1032.54
2019-02-22T11:04:27.646Z,1032.56
2019-02-22T11:05:27.638Z,1032.54
2019-02-22T11:06:27.610Z,1032.46
2019-02-22T11:07:27.605Z,1032.54
2019-02-22T11:08:27.652Z,1032.50
2019-02-22T11:09:27.582Z,1032.52
2019-02-22T11:10:27.569Z,1032.62
2019-02-22T11:11:27.644Z,1032.58
2019-02-22T11:12:27.660Z,1032.55
2019-02-22T11:13:27.539Z,1032.59
2019-02-22T11:14:29.412Z,1032.65
2019-02-22T11:15:27.524Z,1032.62
2019-02-22T11:16:27.500Z,1032.60
2019-02-22T11:17:27.500Z,1032.61
2019-02-22T11:18:27.542Z,1032.70
2019-02-22T11:19:27.469Z,1032.69
2019-02-22T11:20:27.466Z,1032.64
2019-02-22T11:21:27.480Z,1032.67
2019-02-22T11:22:27.438Z,1032.66
2019-02-22T11:23:27.428Z,1032.79
2019-02-22T11:24:27.418Z,1032.76
2019-02-22T11:25:27.400Z,1032.75
2019-02-22T11:26:27.404Z,1032.80
2019-02-22T11:27:27.369Z,1032.80
2019-02-22T11:28:27.363Z,1032.80
2019-02-22T11:29:27.387Z,1032.81
2019-02-22T11:30:27.435Z,1032.81
2019-02-22T11:31:27.421Z,1032.78
2019-02-22T11:32:27.333Z,1032.88
2019-02-22T11:33:27.366Z,1032.83
2019-02-22T11:34:27.295Z,1032.90
2019-02-22T11:35:27.299Z,1032.87
2019-02-22T11:36:27.293Z,1032.90
2019-02-22T11:37:27.269Z,1032.92
2019-02-22T11:38:27.257Z,1032.95
2019-02-22T11:39:27.248Z,1032.96
2019-02-22T11:40:27.236Z,1032.91
2019-02-22T11:41:27.224Z,1032.89
2019-02-22T11:42:27.231Z,1032.99
2019-02-22T11:43:27.203Z,1033.01
2019-02-22T11:44:27.189Z,1033.02
2019-02-22T11:45:27.176Z,1032.95
2019-02-22T11:46:27.179Z,1033.03
2019-02-22T11:47:27.160Z,1033.02
2019-02-22T11:48:27.147Z,1033.05
2019-02-22T11:49:27.134Z,1033.11
2019-02-22T11:50:27.143Z,1033.09
2019-02-22T11:51:27.117Z,1033.15
2019-02-22T11:52:27.137Z,1033.10
2019-02-22T11:53:27.086Z,1033.04
2019-02-22T11:54:27.130Z,1033.08
2019-02-22T11:55:27.084Z,1033.04
2019-02-22T11:56:27.057Z,1033.14
2019-02-22T11:57:27.046Z,1033.16
2019-02-22T11:58:27.125Z,1033.17
2019-02-22T11:59:27.084Z,1033.16
2019-02-22T12:00:27.163Z,1033.19
2019-02-22T12:01:26.990Z,1033.20
2019-02-22T12:02:26.982Z,1033.22
2019-02-22T12:03:26.987Z,1033.22
2019-02-22T12:04:26.996Z,1033.22
2019-02-22T12:05:26.963Z,1033.24